Аэропорт: Атырау. Атырау

ICAO: UATG

METAR:
2021-04-21 21:00:00
UATG 212100Z 13010G15MPS 1500 R14/P2000N BLDU SCT005 BKN033CB 13/M07 Q1021 WS R14 R14/CLRD70 NOSIG RMK QBB170 QFE768/1024
METAR:
2021-04-21 16:59:00
TAF UATG 211659Z 2118/2218 12014G19MPS 2000 BLDU BKN006 BKN020CB TX14/2212Z TN09/2201Z TEMPO 2118/2124 1200 BECMG 2200/2201 14009G14MPS TEMPO 2200/2206 3100 -TSRA BKN030CB